sensor_id;sensor_type;location;lat;lon;timestamp;P1;P2;P0
77538;PMS7003;67783;51.656;16.106;2023-10-09T00:02:57;1;0;0
77538;PMS7003;67783;51.656;16.106;2023-10-09T00:06:02;0;0;0
77538;PMS7003;67783;51.656;16.106;2023-10-09T00:09:05;0;0;0
77538;PMS7003;67783;51.656;16.106;2023-10-09T00:12:19;0;0;0
77538;PMS7003;67783;51.656;16.106;2023-10-09T00:15:26;2;0;0
77538;PMS7003;67783;51.656;16.106;2023-10-09T00:18:29;0;0;0
77538;PMS7003;67783;51.656;16.106;2023-10-09T00:21:37;1;1;0
77538;PMS7003;67783;51.656;16.106;2023-10-09T00:24:39;0;0;0
77538;PMS7003;67783;51.656;16.106;2023-10-09T00:27:50;2;0;0
77538;PMS7003;67783;51.656;16.106;2023-10-09T00:31:04;2;2;1
77538;PMS7003;67783;51.656;16.106;2023-10-09T00:34:13;0;0;0
77538;PMS7003;67783;51.656;16.106;2023-10-09T00:37:20;3;1;0
77538;PMS7003;67783;51.656;16.106;2023-10-09T00:40:31;1;0;0
77538;PMS7003;67783;51.656;16.106;2023-10-09T00:43:37;1;1;1
77538;PMS7003;67783;51.656;16.106;2023-10-09T00:46:44;0;0;0
77538;PMS7003;67783;51.656;16.106;2023-10-09T00:53:29;1;1;1
77538;PMS7003;67783;51.656;16.106;2023-10-09T00:56:34;0;0;0
77538;PMS7003;67783;51.656;16.106;2023-10-09T00:59:42;0;0;0
77538;PMS7003;67783;51.656;16.106;2023-10-09T01:02:44;2;0;0
77538;PMS7003;67783;51.656;16.106;2023-10-09T01:05:49;1;1;1
77538;PMS7003;67783;51.656;16.106;2023-10-09T01:09:06;0;0;0
77538;PMS7003;67783;51.656;16.106;2023-10-09T01:12:11;0;0;0
77538;PMS7003;67783;51.656;16.106;2023-10-09T01:15:19;0;0;0
77538;PMS7003;67783;51.656;16.106;2023-10-09T01:18:31;3;1;0
77538;PMS7003;67783;51.656;16.106;2023-10-09T01:21:41;1;1;1
77538;PMS7003;67783;51.656;16.106;2023-10-09T01:24:43;0;0;0
77538;PMS7003;67783;51.656;16.106;2023-10-09T01:27:51;0;0;0
77538;PMS7003;67783;51.656;16.106;2023-10-09T01:30:53;2;2;1
77538;PMS7003;67783;51.656;16.106;2023-10-09T01:33:56;6;1;0
77538;PMS7003;67783;51.656;16.106;2023-10-09T01:37:00;0;0;0
77538;PMS7003;67783;51.656;16.106;2023-10-09T01:40:11;1;1;0
77538;PMS7003;67783;51.656;16.106;2023-10-09T01:43:24;1;1;1
77538;PMS7003;67783;51.656;16.106;2023-10-09T01:46:27;2;2;1
77538;PMS7003;67783;51.656;16.106;2023-10-09T01:49:29;1;1;0
77538;PMS7003;67783;51.656;16.106;2023-10-09T01:52:42;0;0;0
77538;PMS7003;67783;51.656;16.106;2023-10-09T01:55:44;1;1;0
77538;PMS7003;67783;51.656;16.106;2023-10-09T01:58:46;1;1;0
77538;PMS7003;67783;51.656;16.106;2023-10-09T02:01:51;0;0;0
77538;PMS7003;67783;51.656;16.106;2023-10-09T02:05:03;2;0;0
77538;PMS7003;67783;51.656;16.106;2023-10-09T02:08:21;0;0;0
77538;PMS7003;67783;51.656;16.106;2023-10-09T02:11:36;1;1;1
77538;PMS7003;67783;51.656;16.106;2023-10-09T02:14:46;1;1;0
77538;PMS7003;67783;51.656;16.106;2023-10-09T02:17:47;3;1;1
77538;PMS7003;67783;51.656;16.106;2023-10-09T02:21:06;3;2;0
77538;PMS7003;67783;51.656;16.106;2023-10-09T02:24:14;1;1;1
77538;PMS7003;67783;51.656;16.106;2023-10-09T02:27:26;2;1;1
77538;PMS7003;67783;51.656;16.106;2023-10-09T02:30:40;0;0;0
77538;PMS7003;67783;51.656;16.106;2023-10-09T02:33:42;1;1;1
77538;PMS7003;67783;51.656;16.106;2023-10-09T02:36:45;1;1;0
77538;PMS7003;67783;51.656;16.106;2023-10-09T02:39:58;0;0;0
77538;PMS7003;67783;51.656;16.106;2023-10-09T02:43:09;0;0;0
77538;PMS7003;67783;51.656;16.106;2023-10-09T02:46:18;0;0;0
77538;PMS7003;67783;51.656;16.106;2023-10-09T02:49:31;0;0;0
77538;PMS7003;67783;51.656;16.106;2023-10-09T02:52:35;0;0;0
77538;PMS7003;67783;51.656;16.106;2023-10-09T02:55:42;2;1;1
77538;PMS7003;67783;51.656;16.106;2023-10-09T02:58:53;1;1;0
77538;PMS7003;67783;51.656;16.106;2023-10-09T03:02:01;0;0;0
77538;PMS7003;67783;51.656;16.106;2023-10-09T03:05:03;0;0;0
77538;PMS7003;67783;51.656;16.106;2023-10-09T03:08:06;0;0;0
77538;PMS7003;67783;51.656;16.106;2023-10-09T03:11:13;0;0;0
77538;PMS7003;67783;51.656;16.106;2023-10-09T03:14:17;0;0;0
77538;PMS7003;67783;51.656;16.106;2023-10-09T03:17:21;0;0;0
77538;PMS7003;67783;51.656;16.106;2023-10-09T03:20:23;0;0;0
77538;PMS7003;67783;51.656;16.106;2023-10-09T03:23:25;1;1;0
77538;PMS7003;67783;51.656;16.106;2023-10-09T03:26:26;0;0;0
77538;PMS7003;67783;51.656;16.106;2023-10-09T03:29:38;0;0;0
77538;PMS7003;67783;51.656;16.106;2023-10-09T03:32:39;2;0;0
77538;PMS7003;67783;51.656;16.106;2023-10-09T03:35:41;0;0;0
77538;PMS7003;67783;51.656;16.106;2023-10-09T03:38:42;0;0;0
77538;PMS7003;67783;51.656;16.106;2023-10-09T03:41:45;1;0;0
77538;PMS7003;67783;51.656;16.106;2023-10-09T03:44:58;0;0;0
77538;PMS7003;67783;51.656;16.106;2023-10-09T03:48:00;0;0;0
77538;PMS7003;67783;51.656;16.106;2023-10-09T03:51:14;0;0;0
77538;PMS7003;67783;51.656;16.106;2023-10-09T03:54:25;1;1;0
77538;PMS7003;67783;51.656;16.106;2023-10-09T03:57:31;0;0;0
77538;PMS7003;67783;51.656;16.106;2023-10-09T04:00:32;0;0;0
77538;PMS7003;67783;51.656;16.106;2023-10-09T04:03:51;1;1;0
77538;PMS7003;67783;51.656;16.106;2023-10-09T04:07:00;1;0;0
77538;PMS7003;67783;51.656;16.106;2023-10-09T04:10:01;1;1;1
77538;PMS7003;67783;51.656;16.106;2023-10-09T04:13:18;1;1;0
77538;PMS7003;67783;51.656;16.106;2023-10-09T04:16:23;1;0;0
77538;PMS7003;67783;51.656;16.106;2023-10-09T04:19:38;1;1;1
77538;PMS7003;67783;51.656;16.106;2023-10-09T04:22:55;1;1;1
77538;PMS7003;67783;51.656;16.106;2023-10-09T04:26:06;0;0;0
77538;PMS7003;67783;51.656;16.106;2023-10-09T04:29:15;0;0;0
77538;PMS7003;67783;51.656;16.106;2023-10-09T04:32:29;1;1;0
77538;PMS7003;67783;51.656;16.106;2023-10-09T04:35:32;1;0;0
77538;PMS7003;67783;51.656;16.106;2023-10-09T04:38:34;1;1;1
77538;PMS7003;67783;51.656;16.106;2023-10-09T04:41:46;0;0;0
77538;PMS7003;67783;51.656;16.106;2023-10-09T04:44:53;2;1;0
77538;PMS7003;67783;51.656;16.106;2023-10-09T04:48:08;1;1;0
77538;PMS7003;67783;51.656;16.106;2023-10-09T04:51:14;3;1;0
77538;PMS7003;67783;51.656;16.106;2023-10-09T04:54:22;1;1;1
77538;PMS7003;67783;51.656;16.106;2023-10-09T04:57:35;0;0;0
77538;PMS7003;67783;51.656;16.106;2023-10-09T05:00:52;1;0;0
77538;PMS7003;67783;51.656;16.106;2023-10-09T05:04:12;1;1;1
77538;PMS7003;67783;51.656;16.106;2023-10-09T05:07:28;1;0;0
77538;PMS7003;67783;51.656;16.106;2023-10-09T05:10:41;1;1;1
77538;PMS7003;67783;51.656;16.106;2023-10-09T05:13:53;1;1;1
77538;PMS7003;67783;51.656;16.106;2023-10-09T05:17:05;1;0;0
77538;PMS7003;67783;51.656;16.106;2023-10-09T05:20:07;0;0;0
77538;PMS7003;67783;51.656;16.106;2023-10-09T05:23:21;1;1;1
77538;PMS7003;67783;51.656;16.106;2023-10-09T05:26:29;2;1;0
77538;PMS7003;67783;51.656;16.106;2023-10-09T05:29:43;0;0;0
77538;PMS7003;67783;51.656;16.106;2023-10-09T05:32:57;1;1;0
77538;PMS7003;67783;51.656;16.106;2023-10-09T05:36:20;0;0;0
77538;PMS7003;67783;51.656;16.106;2023-10-09T05:39:32;2;2;1
77538;PMS7003;67783;51.656;16.106;2023-10-09T05:42:43;4;1;1
77538;PMS7003;67783;51.656;16.106;2023-10-09T05:45:48;2;1;1
77538;PMS7003;67783;51.656;16.106;2023-10-09T05:49:02;1;1;0
77538;PMS7003;67783;51.656;16.106;2023-10-09T05:52:16;4;3;2
77538;PMS7003;67783;51.656;16.106;2023-10-09T05:55:30;2;1;1
77538;PMS7003;67783;51.656;16.106;2023-10-09T05:58:54;1;1;1
77538;PMS7003;67783;51.656;16.106;2023-10-09T06:02:07;2;2;1
77538;PMS7003;67783;51.656;16.106;2023-10-09T06:05:23;2;2;1
77538;PMS7003;67783;51.656;16.106;2023-10-09T06:08:38;2;2;1
77538;PMS7003;67783;51.656;16.106;2023-10-09T06:12:00;2;0;0
77538;PMS7003;67783;51.656;16.106;2023-10-09T06:15:14;4;0;0
77538;PMS7003;67783;51.656;16.106;2023-10-09T06:18:31;2;1;1
77538;PMS7003;67783;51.656;16.106;2023-10-09T06:21:36;2;0;0
77538;PMS7003;67783;51.656;16.106;2023-10-09T06:24:51;0;0;0
77538;PMS7003;67783;51.656;16.106;2023-10-09T06:28:00;1;1;0
77538;PMS7003;67783;51.656;16.106;2023-10-09T06:31:05;2;1;1
77538;PMS7003;67783;51.656;16.106;2023-10-09T06:34:17;4;1;1
77538;PMS7003;67783;51.656;16.106;2023-10-09T06:37:21;0;0;0
77538;PMS7003;67783;51.656;16.106;2023-10-09T06:40:39;1;1;1
77538;PMS7003;67783;51.656;16.106;2023-10-09T06:44:04;1;1;1
77538;PMS7003;67783;51.656;16.106;2023-10-09T06:47:07;0;0;0
77538;PMS7003;67783;51.656;16.106;2023-10-09T06:50:12;1;1;1
77538;PMS7003;67783;51.656;16.106;2023-10-09T06:53:30;1;1;0
77538;PMS7003;67783;51.656;16.106;2023-10-09T06:56:44;1;1;1
77538;PMS7003;67783;51.656;16.106;2023-10-09T06:59:59;0;0;0
77538;PMS7003;67783;51.656;16.106;2023-10-09T07:03:13;1;1;1
77538;PMS7003;67783;51.656;16.106;2023-10-09T07:06:18;3;0;0
77538;PMS7003;67783;51.656;16.106;2023-10-09T07:09:33;0;0;0
77538;PMS7003;67783;51.656;16.106;2023-10-09T07:12:44;0;0;0
77538;PMS7003;67783;51.656;16.106;2023-10-09T07:15:50;1;1;0
77538;PMS7003;67783;51.656;16.106;2023-10-09T07:19:05;1;1;0
77538;PMS7003;67783;51.656;16.106;2023-10-09T07:22:22;1;1;0
77538;PMS7003;67783;51.656;16.106;2023-10-09T07:25:43;0;0;0
77538;PMS7003;67783;51.656;16.106;2023-10-09T07:28:56;0;0;0
77538;PMS7003;67783;51.656;16.106;2023-10-09T07:32:08;0;0;0
77538;PMS7003;67783;51.656;16.106;2023-10-09T07:35:13;0;0;0
77538;PMS7003;67783;51.656;16.106;2023-10-09T07:38:25;1;1;0
77538;PMS7003;67783;51.656;16.106;2023-10-09T07:41:35;0;0;0
77538;PMS7003;67783;51.656;16.106;2023-10-09T07:44:45;0;0;0
77538;PMS7003;67783;51.656;16.106;2023-10-09T07:47:56;0;0;0
77538;PMS7003;67783;51.656;16.106;2023-10-09T07:54:13;0;0;0
77538;PMS7003;67783;51.656;16.106;2023-10-09T07:57:28;1;0;0
77538;PMS7003;67783;51.656;16.106;2023-10-09T08:00:41;0;0;0
77538;PMS7003;67783;51.656;16.106;2023-10-09T08:03:54;1;0;0
77538;PMS7003;67783;51.656;16.106;2023-10-09T08:07:08;3;0;0
77538;PMS7003;67783;51.656;16.106;2023-10-09T08:10:10;0;0;0
77538;PMS7003;67783;51.656;16.106;2023-10-09T08:13:25;0;0;0
77538;PMS7003;67783;51.656;16.106;2023-10-09T08:16:49;0;0;0
77538;PMS7003;67783;51.656;16.106;2023-10-09T08:20:06;0;0;0
77538;PMS7003;67783;51.656;16.106;2023-10-09T08:23:17;0;0;0
77538;PMS7003;67783;51.656;16.106;2023-10-09T08:26:31;0;0;0
77538;PMS7003;67783;51.656;16.106;2023-10-09T08:29:42;0;0;0
77538;PMS7003;67783;51.656;16.106;2023-10-09T08:32:49;0;0;0
77538;PMS7003;67783;51.656;16.106;2023-10-09T08:36:04;0;0;0
77538;PMS7003;67783;51.656;16.106;2023-10-09T08:39:10;0;0;0
77538;PMS7003;67783;51.656;16.106;2023-10-09T08:42:22;0;0;0
77538;PMS7003;67783;51.656;16.106;2023-10-09T08:45:27;0;0;0
77538;PMS7003;67783;51.656;16.106;2023-10-09T08:48:29;0;0;0
77538;PMS7003;67783;51.656;16.106;2023-10-09T08:51:31;1;0;0
77538;PMS7003;67783;51.656;16.106;2023-10-09T08:54:36;0;0;0
77538;PMS7003;67783;51.656;16.106;2023-10-09T08:57:41;1;1;0
77538;PMS7003;67783;51.656;16.106;2023-10-09T09:00:48;1;1;1
77538;PMS7003;67783;51.656;16.106;2023-10-09T09:03:51;0;0;0
77538;PMS7003;67783;51.656;16.106;2023-10-09T09:06:56;0;0;0
77538;PMS7003;67783;51.656;16.106;2023-10-09T09:09:58;4;1;0
77538;PMS7003;67783;51.656;16.106;2023-10-09T09:13:16;1;0;0
77538;PMS7003;67783;51.656;16.106;2023-10-09T09:16:23;1;0;0
77538;PMS7003;67783;51.656;16.106;2023-10-09T09:19:32;0;0;0
77538;PMS7003;67783;51.656;16.106;2023-10-09T09:22:51;0;0;0
77538;PMS7003;67783;51.656;16.106;2023-10-09T09:25:51;0;0;0
77538;PMS7003;67783;51.656;16.106;2023-10-09T09:29:05;0;0;0
77538;PMS7003;67783;51.656;16.106;2023-10-09T09:32:10;0;0;0
77538;PMS7003;67783;51.656;16.106;2023-10-09T09:35:22;0;0;0
77538;PMS7003;67783;51.656;16.106;2023-10-09T09:38:28;0;0;0
77538;PMS7003;67783;51.656;16.106;2023-10-09T09:41:42;0;0;0
77538;PMS7003;67783;51.656;16.106;2023-10-09T09:44:47;2;0;0
77538;PMS7003;67783;51.656;16.106;2023-10-09T09:47:49;0;0;0
77538;PMS7003;67783;51.656;16.106;2023-10-09T09:50:59;0;0;0
77538;PMS7003;67783;51.656;16.106;2023-10-09T09:54:13;0;0;0
77538;PMS7003;67783;51.656;16.106;2023-10-09T09:57:25;3;0;0
77538;PMS7003;67783;51.656;16.106;2023-10-09T10:00:30;0;0;0
77538;PMS7003;67783;51.656;16.106;2023-10-09T10:03:48;0;0;0
77538;PMS7003;67783;51.656;16.106;2023-10-09T10:06:53;0;0;0
77538;PMS7003;67783;51.656;16.106;2023-10-09T10:09:57;0;0;0
77538;PMS7003;67783;51.656;16.106;2023-10-09T10:13:06;0;0;0
77538;PMS7003;67783;51.656;16.106;2023-10-09T10:16:18;0;0;0
77538;PMS7003;67783;51.656;16.106;2023-10-09T10:19:22;1;0;0
77538;PMS7003;67783;51.656;16.106;2023-10-09T10:22:33;1;1;0
77538;PMS7003;67783;51.656;16.106;2023-10-09T10:25:38;0;0;0
77538;PMS7003;67783;51.656;16.106;2023-10-09T10:28:42;0;0;0
77538;PMS7003;67783;51.656;16.106;2023-10-09T10:34:58;0;0;0
77538;PMS7003;67783;51.656;16.106;2023-10-09T10:41:22;0;0;0
77538;PMS7003;67783;51.656;16.106;2023-10-09T10:44:27;0;0;0
77538;PMS7003;67783;51.656;16.106;2023-10-09T10:47:38;0;0;0
77538;PMS7003;67783;51.656;16.106;2023-10-09T10:50:42;0;0;0
77538;PMS7003;67783;51.656;16.106;2023-10-09T11:00:31;2;1;0
77538;PMS7003;67783;51.656;16.106;2023-10-09T11:03:45;1;1;1
77538;PMS7003;67783;51.656;16.106;2023-10-09T11:06:59;0;0;0
77538;PMS7003;67783;51.656;16.106;2023-10-09T11:10:13;2;0;0
77538;PMS7003;67783;51.656;16.106;2023-10-09T11:13:33;0;0;0
77538;PMS7003;67783;51.656;16.106;2023-10-09T11:16:41;0;0;0
77538;PMS7003;67783;51.656;16.106;2023-10-09T11:19:43;0;0;0
77538;PMS7003;67783;51.656;16.106;2023-10-09T11:22:45;0;0;0
77538;PMS7003;67783;51.656;16.106;2023-10-09T11:25:59;0;0;0
77538;PMS7003;67783;51.656;16.106;2023-10-09T11:29:13;0;0;0
77538;PMS7003;67783;51.656;16.106;2023-10-09T11:32:36;0;0;0
77538;PMS7003;67783;51.656;16.106;2023-10-09T11:35:40;0;0;0
77538;PMS7003;67783;51.656;16.106;2023-10-09T11:38:45;0;0;0
77538;PMS7003;67783;51.656;16.106;2023-10-09T11:42:08;0;0;0
77538;PMS7003;67783;51.656;16.106;2023-10-09T11:48:29;0;0;0
77538;PMS7003;67783;51.656;16.106;2023-10-09T11:51:41;0;0;0
77538;PMS7003;67783;51.656;16.106;2023-10-09T11:54:54;2;0;0
77538;PMS7003;67783;51.656;16.106;2023-10-09T11:57:57;0;0;0
77538;PMS7003;67783;51.656;16.106;2023-10-09T12:01:10;0;0;0
77538;PMS7003;67783;51.656;16.106;2023-10-09T12:04:18;0;0;0
77538;PMS7003;67783;51.656;16.106;2023-10-09T12:07:19;0;0;0
77538;PMS7003;67783;51.656;16.106;2023-10-09T12:10:28;2;1;1
77538;PMS7003;67783;51.656;16.106;2023-10-09T12:13:30;0;0;0
77538;PMS7003;67783;51.656;16.106;2023-10-09T12:16:32;0;0;0
77538;PMS7003;67783;51.656;16.106;2023-10-09T12:19:34;1;1;1
77538;PMS7003;67783;51.656;16.106;2023-10-09T12:22:38;0;0;0
77538;PMS7003;67783;51.656;16.106;2023-10-09T12:26:15;0;0;0
77538;PMS7003;67783;51.656;16.106;2023-10-09T12:29:17;0;0;0
77538;PMS7003;67783;51.656;16.106;2023-10-09T12:32:20;0;0;0
77538;PMS7003;67783;51.656;16.106;2023-10-09T12:35:22;1;1;0
77538;PMS7003;67783;51.656;16.106;2023-10-09T12:38:28;0;0;0
77538;PMS7003;67783;51.656;16.106;2023-10-09T12:41:33;0;0;0
77538;PMS7003;67783;51.656;16.106;2023-10-09T12:44:41;0;0;0
77538;PMS7003;67783;51.656;16.106;2023-10-09T12:47:43;0;0;0
77538;PMS7003;67783;51.656;16.106;2023-10-09T12:50:46;4;1;0
77538;PMS7003;67783;51.656;16.106;2023-10-09T12:54:05;0;0;0
77538;PMS7003;67783;51.656;16.106;2023-10-09T12:57:06;1;1;0
77538;PMS7003;67783;51.656;16.106;2023-10-09T13:00:14;0;0;0
77538;PMS7003;67783;51.656;16.106;2023-10-09T13:03:31;0;0;0
77538;PMS7003;67783;51.656;16.106;2023-10-09T13:06:33;0;0;0
77538;PMS7003;67783;51.656;16.106;2023-10-09T13:09:44;0;0;0
77538;PMS7003;67783;51.656;16.106;2023-10-09T13:12:57;0;0;0
77538;PMS7003;67783;51.656;16.106;2023-10-09T13:15:59;4;1;1
77538;PMS7003;67783;51.656;16.106;2023-10-09T13:19:01;0;0;0
77538;PMS7003;67783;51.656;16.106;2023-10-09T13:22:10;1;1;1
77538;PMS7003;67783;51.656;16.106;2023-10-09T13:25:13;0;0;0
77538;PMS7003;67783;51.656;16.106;2023-10-09T13:28:25;0;0;0
77538;PMS7003;67783;51.656;16.106;2023-10-09T13:31:27;4;1;1
77538;PMS7003;67783;51.656;16.106;2023-10-09T13:34:34;2;0;0
77538;PMS7003;67783;51.656;16.106;2023-10-09T13:37:45;0;0;0
77538;PMS7003;67783;51.656;16.106;2023-10-09T13:40:58;1;1;1
77538;PMS7003;67783;51.656;16.106;2023-10-09T13:44:05;0;0;0
77538;PMS7003;67783;51.656;16.106;2023-10-09T13:47:11;0;0;0
77538;PMS7003;67783;51.656;16.106;2023-10-09T13:50:24;1;1;1
77538;PMS7003;67783;51.656;16.106;2023-10-09T13:53:33;0;0;0
77538;PMS7003;67783;51.656;16.106;2023-10-09T13:56:47;0;0;0
77538;PMS7003;67783;51.656;16.106;2023-10-09T13:59:53;1;0;0
77538;PMS7003;67783;51.656;16.106;2023-10-09T14:02:56;2;0;0
77538;PMS7003;67783;51.656;16.106;2023-10-09T14:06:05;2;1;1
77538;PMS7003;67783;51.656;16.106;2023-10-09T14:09:13;0;0;0
77538;PMS7003;67783;51.656;16.106;2023-10-09T14:12:26;1;1;0
77538;PMS7003;67783;51.656;16.106;2023-10-09T14:15:31;2;1;0
77538;PMS7003;67783;51.656;16.106;2023-10-09T14:18:33;3;1;1
77538;PMS7003;67783;51.656;16.106;2023-10-09T14:21:35;1;1;1
77538;PMS7003;67783;51.656;16.106;2023-10-09T14:24:43;3;1;0
77538;PMS7003;67783;51.656;16.106;2023-10-09T14:27:48;1;1;1
77538;PMS7003;67783;51.656;16.106;2023-10-09T14:30:54;4;2;1
77538;PMS7003;67783;51.656;16.106;2023-10-09T14:34:05;0;0;0
77538;PMS7003;67783;51.656;16.106;2023-10-09T14:37:09;1;1;0
77538;PMS7003;67783;51.656;16.106;2023-10-09T14:40:20;0;0;0
77538;PMS7003;67783;51.656;16.106;2023-10-09T14:43:32;1;0;0
77538;PMS7003;67783;51.656;16.106;2023-10-09T14:46:35;0;0;0
77538;PMS7003;67783;51.656;16.106;2023-10-09T14:49:49;0;0;0
77538;PMS7003;67783;51.656;16.106;2023-10-09T14:52:54;1;1;0
77538;PMS7003;67783;51.656;16.106;2023-10-09T14:55:56;2;0;0
77538;PMS7003;67783;51.656;16.106;2023-10-09T14:59:00;2;0;0
77538;PMS7003;67783;51.656;16.106;2023-10-09T15:02:02;0;0;0
77538;PMS7003;67783;51.656;16.106;2023-10-09T15:05:07;1;1;0
77538;PMS7003;67783;51.656;16.106;2023-10-09T15:08:14;0;0;0
77538;PMS7003;67783;51.656;16.106;2023-10-09T15:11:21;1;0;0
77538;PMS7003;67783;51.656;16.106;2023-10-09T15:14:33;2;2;1
77538;PMS7003;67783;51.656;16.106;2023-10-09T15:17:35;0;0;0
77538;PMS7003;67783;51.656;16.106;2023-10-09T15:20:36;2;2;1
77538;PMS7003;67783;51.656;16.106;2023-10-09T15:23:40;1;1;1
77538;PMS7003;67783;51.656;16.106;2023-10-09T15:26:45;2;2;1
77538;PMS7003;67783;51.656;16.106;2023-10-09T15:29:54;2;1;0
77538;PMS7003;67783;51.656;16.106;2023-10-09T15:32:56;2;2;1
77538;PMS7003;67783;51.656;16.106;2023-10-09T15:35:58;4;1;1
77538;PMS7003;67783;51.656;16.106;2023-10-09T15:39:00;1;1;1
77538;PMS7003;67783;51.656;16.106;2023-10-09T15:42:01;2;1;1
77538;PMS7003;67783;51.656;16.106;2023-10-09T15:45:18;1;1;1
77538;PMS7003;67783;51.656;16.106;2023-10-09T15:48:22;2;2;1
77538;PMS7003;67783;51.656;16.106;2023-10-09T15:51:24;1;1;1
77538;PMS7003;67783;51.656;16.106;2023-10-09T15:54:26;1;1;1
77538;PMS7003;67783;51.656;16.106;2023-10-09T15:57:29;1;1;0
77538;PMS7003;67783;51.656;16.106;2023-10-09T16:00:35;0;0;0
77538;PMS7003;67783;51.656;16.106;2023-10-09T16:03:39;0;0;0
77538;PMS7003;67783;51.656;16.106;2023-10-09T16:06:41;1;1;1
77538;PMS7003;67783;51.656;16.106;2023-10-09T16:09:43;3;2;1
77538;PMS7003;67783;51.656;16.106;2023-10-09T16:12:46;1;1;0
77538;PMS7003;67783;51.656;16.106;2023-10-09T16:15:56;0;0;0
77538;PMS7003;67783;51.656;16.106;2023-10-09T16:19:01;3;0;0
77538;PMS7003;67783;51.656;16.106;2023-10-09T16:22:05;1;1;1
77538;PMS7003;67783;51.656;16.106;2023-10-09T16:25:07;2;2;1
77538;PMS7003;67783;51.656;16.106;2023-10-09T16:28:14;2;2;1
77538;PMS7003;67783;51.656;16.106;2023-10-09T16:31:19;1;1;1
77538;PMS7003;67783;51.656;16.106;2023-10-09T16:34:21;1;1;1
77538;PMS7003;67783;51.656;16.106;2023-10-09T16:37:27;1;1;1
77538;PMS7003;67783;51.656;16.106;2023-10-09T16:40:29;0;0;0
77538;PMS7003;67783;51.656;16.106;2023-10-09T16:43:32;1;1;1
77538;PMS7003;67783;51.656;16.106;2023-10-09T16:46:39;3;1;0
77538;PMS7003;67783;51.656;16.106;2023-10-09T16:49:41;3;3;2
77538;PMS7003;67783;51.656;16.106;2023-10-09T16:52:43;2;1;1
77538;PMS7003;67783;51.656;16.106;2023-10-09T16:55:45;4;2;2
77538;PMS7003;67783;51.656;16.106;2023-10-09T16:58:52;1;1;1
77538;PMS7003;67783;51.656;16.106;2023-10-09T17:02:00;3;3;2
77538;PMS7003;67783;51.656;16.106;2023-10-09T17:05:01;3;3;2
77538;PMS7003;67783;51.656;16.106;2023-10-09T17:08:09;5;4;4
77538;PMS7003;67783;51.656;16.106;2023-10-09T17:11:11;7;4;2
77538;PMS7003;67783;51.656;16.106;2023-10-09T17:14:20;7;7;4
77538;PMS7003;67783;51.656;16.106;2023-10-09T17:17:27;7;7;6
77538;PMS7003;67783;51.656;16.106;2023-10-09T17:20:31;8;8;5
77538;PMS7003;67783;51.656;16.106;2023-10-09T17:23:38;4;4;3
77538;PMS7003;67783;51.656;16.106;2023-10-09T17:26:52;6;3;3
77538;PMS7003;67783;51.656;16.106;2023-10-09T17:29:56;2;2;1
77538;PMS7003;67783;51.656;16.106;2023-10-09T17:33:00;2;1;1
77538;PMS7003;67783;51.656;16.106;2023-10-09T17:36:04;2;2;1
77538;PMS7003;67783;51.656;16.106;2023-10-09T17:39:07;10;6;5
77538;PMS7003;67783;51.656;16.106;2023-10-09T17:42:13;7;5;4
77538;PMS7003;67783;51.656;16.106;2023-10-09T17:45:14;6;5;4
77538;PMS7003;67783;51.656;16.106;2023-10-09T17:48:24;5;5;4
77538;PMS7003;67783;51.656;16.106;2023-10-09T17:51:25;6;5;3
77538;PMS7003;67783;51.656;16.106;2023-10-09T17:54:27;2;2;2
77538;PMS7003;67783;51.656;16.106;2023-10-09T17:57:33;3;2;1
77538;PMS7003;67783;51.656;16.106;2023-10-09T18:00:36;2;1;0
77538;PMS7003;67783;51.656;16.106;2023-10-09T18:03:40;4;2;2
77538;PMS7003;67783;51.656;16.106;2023-10-09T18:06:41;1;1;0
77538;PMS7003;67783;51.656;16.106;2023-10-09T18:09:43;2;2;2
77538;PMS7003;67783;51.656;16.106;2023-10-09T18:12:54;1;1;1
77538;PMS7003;67783;51.656;16.106;2023-10-09T18:19:08;3;3;2
77538;PMS7003;67783;51.656;16.106;2023-10-09T18:22:21;2;1;1
77538;PMS7003;67783;51.656;16.106;2023-10-09T18:25:25;2;1;1
77538;PMS7003;67783;51.656;16.106;2023-10-09T18:28:28;1;1;0
77538;PMS7003;67783;51.656;16.106;2023-10-09T18:31:30;2;2;1
77538;PMS7003;67783;51.656;16.106;2023-10-09T18:34:31;3;2;1
77538;PMS7003;67783;51.656;16.106;2023-10-09T18:37:41;3;2;2
77538;PMS7003;67783;51.656;16.106;2023-10-09T18:40:43;2;2;1
77538;PMS7003;67783;51.656;16.106;2023-10-09T18:43:48;2;2;1
77538;PMS7003;67783;51.656;16.106;2023-10-09T18:46:52;3;2;1
77538;PMS7003;67783;51.656;16.106;2023-10-09T18:49:55;2;2;1
77538;PMS7003;67783;51.656;16.106;2023-10-09T18:53:02;3;3;3
77538;PMS7003;67783;51.656;16.106;2023-10-09T18:56:03;3;3;2
77538;PMS7003;67783;51.656;16.106;2023-10-09T18:59:06;3;3;2
77538;PMS7003;67783;51.656;16.106;2023-10-09T19:02:11;3;3;2
77538;PMS7003;67783;51.656;16.106;2023-10-09T19:05:14;4;4;3
77538;PMS7003;67783;51.656;16.106;2023-10-09T19:08:22;6;5;4
77538;PMS7003;67783;51.656;16.106;2023-10-09T19:11:24;6;6;4
77538;PMS7003;67783;51.656;16.106;2023-10-09T19:14:27;6;6;4
77538;PMS7003;67783;51.656;16.106;2023-10-09T19:17:30;7;5;4
77538;PMS7003;67783;51.656;16.106;2023-10-09T19:20:31;3;3;2
77538;PMS7003;67783;51.656;16.106;2023-10-09T19:23:43;2;2;2
77538;PMS7003;67783;51.656;16.106;2023-10-09T19:26:48;4;4;3
77538;PMS7003;67783;51.656;16.106;2023-10-09T19:29:50;2;2;1
77538;PMS7003;67783;51.656;16.106;2023-10-09T19:32:52;2;2;2
77538;PMS7003;67783;51.656;16.106;2023-10-09T19:36:00;5;2;1
77538;PMS7003;67783;51.656;16.106;2023-10-09T19:39:17;2;2;1
77538;PMS7003;67783;51.656;16.106;2023-10-09T19:42:19;2;2;2
77538;PMS7003;67783;51.656;16.106;2023-10-09T19:45:22;3;3;1
77538;PMS7003;67783;51.656;16.106;2023-10-09T19:48:30;3;3;2
77538;PMS7003;67783;51.656;16.106;2023-10-09T19:51:35;6;4;3
77538;PMS7003;67783;51.656;16.106;2023-10-09T19:54:37;4;3;2
77538;PMS7003;67783;51.656;16.106;2023-10-09T19:57:43;3;3;2
77538;PMS7003;67783;51.656;16.106;2023-10-09T20:00:45;5;3;2
77538;PMS7003;67783;51.656;16.106;2023-10-09T20:03:50;3;3;2
77538;PMS7003;67783;51.656;16.106;2023-10-09T20:06:53;4;2;1
77538;PMS7003;67783;51.656;16.106;2023-10-09T20:09:54;4;4;4
77538;PMS7003;67783;51.656;16.106;2023-10-09T20:13:01;4;3;3
77538;PMS7003;67783;51.656;16.106;2023-10-09T20:16:04;6;6;4
77538;PMS7003;67783;51.656;16.106;2023-10-09T20:19:11;6;5;3
77538;PMS7003;67783;51.656;16.106;2023-10-09T20:22:13;6;5;4
77538;PMS7003;67783;51.656;16.106;2023-10-09T20:25:14;3;3;2
77538;PMS7003;67783;51.656;16.106;2023-10-09T20:28:18;5;5;3
77538;PMS7003;67783;51.656;16.106;2023-10-09T20:31:19;6;4;3
77538;PMS7003;67783;51.656;16.106;2023-10-09T20:34:32;4;4;4
77538;PMS7003;67783;51.656;16.106;2023-10-09T20:37:33;3;3;2
77538;PMS7003;67783;51.656;16.106;2023-10-09T20:40:38;4;2;2
77538;PMS7003;67783;51.656;16.106;2023-10-09T20:43:44;5;3;2
77538;PMS7003;67783;51.656;16.106;2023-10-09T20:46:52;3;1;1
77538;PMS7003;67783;51.656;16.106;2023-10-09T20:49:57;5;5;3
77538;PMS7003;67783;51.656;16.106;2023-10-09T20:53:00;4;4;2
77538;PMS7003;67783;51.656;16.106;2023-10-09T20:56:01;1;1;1
77538;PMS7003;67783;51.656;16.106;2023-10-09T20:59:06;1;1;1
77538;PMS7003;67783;51.656;16.106;2023-10-09T21:02:09;2;2;1
77538;PMS7003;67783;51.656;16.106;2023-10-09T21:05:18;3;3;2
77538;PMS7003;67783;51.656;16.106;2023-10-09T21:08:22;4;3;2
77538;PMS7003;67783;51.656;16.106;2023-10-09T21:11:23;4;3;2
77538;PMS7003;67783;51.656;16.106;2023-10-09T21:14:25;2;1;1